Time;durP1;ratioP1;P1;durP2;ratioP2;P2;SDS_P1;SDS_P2;PMS_P1;PMS_P2;Temp;Humidity;BMP_temperature;BMP_pressure;BME280_temperature;BME280_humidity;BME280_pressure;Samples;Min_cycle;Max_cycle;Signal;HPM_P1;HPM_P2
2023/08/17 00:01:10;;;;;;;3.77;2.00;;;;;;;;;;5012561;28;20193;-49
2023/08/17 00:03:36;;;;;;;3.43;1.90;;;;;;;;;;5012422;28;20247;-49
2023/08/17 00:06:02;;;;;;;4.03;1.90;;;;;;;;;;5012417;28;20208;-49
2023/08/17 00:08:28;;;;;;;3.33;1.93;;;;;;;;;;5012523;28;20203;-50
2023/08/17 00:10:55;;;;;;;4.50;1.83;;;;;;;;;;5011944;28;20205;-51
2023/08/17 00:13:21;;;;;;;6.67;2.17;;;;;;;;;;5012422;28;20200;-49
2023/08/17 00:15:47;;;;;;;3.77;2.00;;;;;;;;;;5012260;28;20231;-49
2023/08/17 00:18:13;;;;;;;2.20;1.70;;;;;;;;;;5012215;28;20201;-52
2023/08/17 00:20:39;;;;;;;4.87;1.97;;;;;;;;;;5011992;28;20209;-51
2023/08/17 00:23:05;;;;;;;4.27;2.13;;;;;;;;;;5003227;28;20209;-49
2023/08/17 00:25:31;;;;;;;2.70;1.77;;;;;;;;;;5008430;28;20203;-49
2023/08/17 00:27:59;;;;;;;3.47;2.00;;;;;;;;;;5008228;28;20590;-48
2023/08/17 00:30:24;;;;;;;3.43;1.67;;;;;;;;;;5011910;28;20203;-48
2023/08/17 00:32:50;;;;;;;3.53;1.73;;;;;;;;;;5011575;28;20276;-49
2023/08/17 00:35:16;;;;;;;7.20;2.07;;;;;;;;;;5011735;28;20600;-49
2023/08/17 00:37:42;;;;;;;5.23;1.77;;;;;;;;;;5011433;28;20203;-50
2023/08/17 00:40:09;;;;;;;4.77;2.00;;;;;;;;;;5011642;28;20204;-49
2023/08/17 00:42:35;;;;;;;3.83;1.90;;;;;;;;;;5011675;28;20601;-49
2023/08/17 00:45:03;;;;;;;3.50;1.70;;;;;;;;;;5011767;28;20272;-50
2023/08/17 00:47:29;;;;;;;2.73;1.87;;;;;;;;;;5011519;28;20263;-50
2023/08/17 00:49:56;;;;;;;4.17;1.97;;;;;;;;;;5011149;28;20197;-49
2023/08/17 00:52:22;;;;;;;5.33;2.17;;;;;;;;;;5011370;28;20249;-50
2023/08/17 00:54:48;;;;;;;5.77;2.20;;;;;;;;;;5011330;28;20236;-49
2023/08/17 00:57:14;;;;;;;4.80;2.20;;;;;;;;;;5011116;28;20618;-50
2023/08/17 00:59:40;;;;;;;4.63;2.30;;;;;;;;;;5011265;28;20200;-50
2023/08/17 01:02:08;;;;;;;3.10;1.40;;;;;;;;;;5011141;28;20200;-50
2023/08/17 01:04:35;;;;;;;4.67;1.77;;;;;;;;;;5011152;28;20215;-49
2023/08/17 01:07:02;;;;;;;2.13;1.90;;;;;;;;;;5011121;28;20201;-49
2023/08/17 01:09:28;;;;;;;4.13;1.83;;;;;;;;;;5011033;28;20200;-50
2023/08/17 01:11:59;;;;;;;2.87;1.67;;;;;;;;;;5010899;28;20218;-49
2023/08/17 01:14:30;;;;;;;2.73;1.80;;;;;;;;;;5010986;28;20236;-49
2023/08/17 01:16:58;;;;;;;3.30;2.00;;;;;;;;;;5010844;28;20193;-49
2023/08/17 01:19:26;;;;;;;3.87;1.93;;;;;;;;;;5010877;28;20204;-49
2023/08/17 01:21:55;;;;;;;4.90;1.93;;;;;;;;;;5010838;28;20204;-49
2023/08/17 01:24:22;;;;;;;4.37;2.17;;;;;;;;;;5010867;28;20230;-49
2023/08/17 01:26:48;;;;;;;4.17;1.90;;;;;;;;;;5010899;28;20299;-50
2023/08/17 01:29:14;;;;;;;4.87;1.67;;;;;;;;;;5010565;28;20338;-49
2023/08/17 01:31:43;;;;;;;3.43;1.90;;;;;;;;;;5010783;28;20212;-49
2023/08/17 01:34:13;;;;;;;3.10;2.00;;;;;;;;;;5010487;28;20231;-49
2023/08/17 01:36:43;;;;;;;3.13;2.10;;;;;;;;;;5010722;28;20226;-49
2023/08/17 01:39:10;;;;;;;3.27;1.83;;;;;;;;;;5010668;28;20290;-50
2023/08/17 01:41:38;;;;;;;2.97;1.57;;;;;;;;;;5010693;28;20667;-49
2023/08/17 01:44:05;;;;;;;2.90;1.70;;;;;;;;;;5010595;28;20204;-51
2023/08/17 01:46:32;;;;;;;3.73;1.90;;;;;;;;;;5010650;28;20201;-49
2023/08/17 01:48:58;;;;;;;3.00;2.00;;;;;;;;;;5010497;28;20671;-49
2023/08/17 01:51:25;;;;;;;2.43;1.60;;;;;;;;;;5010440;28;20209;-49
2023/08/17 01:53:51;;;;;;;2.77;1.60;;;;;;;;;;5010476;28;20197;-49
2023/08/17 01:56:17;;;;;;;3.93;1.53;;;;;;;;;;5010713;28;20193;-49
2023/08/17 01:58:44;;;;;;;4.00;2.00;;;;;;;;;;5010450;28;20197;-50
2023/08/17 02:01:10;;;;;;;3.87;2.00;;;;;;;;;;5010565;28;20259;-50
2023/08/17 02:03:36;;;;;;;1.90;1.70;;;;;;;;;;5010400;28;20204;-50
2023/08/17 02:06:02;;;;;;;2.77;1.90;;;;;;;;;;5010538;28;20730;-50
2023/08/17 02:08:28;;;;;;;2.37;1.60;;;;;;;;;;5010259;28;20539;-49
2023/08/17 02:10:54;;;;;;;4.13;2.00;;;;;;;;;;5010267;28;20252;-49
2023/08/17 02:13:20;;;;;;;4.53;2.00;;;;;;;;;;5010476;28;20561;-49
2023/08/17 02:15:48;;;;;;;2.83;1.80;;;;;;;;;;5008641;28;20228;-50
2023/08/17 02:18:14;;;;;;;3.07;1.90;;;;;;;;;;5010714;28;20206;-49
2023/08/17 02:20:40;;;;;;;6.27;1.83;;;;;;;;;;5010693;28;20205;-50
2023/08/17 02:23:06;;;;;;;3.77;1.73;;;;;;;;;;5010744;28;20197;-50
2023/08/17 02:25:35;;;;;;;4.17;1.90;;;;;;;;;;5010906;28;20255;-49
2023/08/17 02:28:02;;;;;;;3.93;1.83;;;;;;;;;;5010585;28;20213;-50
2023/08/17 02:30:28;;;;;;;2.80;1.93;;;;;;;;;;5010696;28;20221;-49
2023/08/17 02:32:56;;;;;;;2.97;1.90;;;;;;;;;;5010418;28;20220;-49
2023/08/17 02:35:23;;;;;;;4.07;2.30;;;;;;;;;;5010356;28;20691;-48
2023/08/17 02:37:49;;;;;;;3.10;1.90;;;;;;;;;;5010812;28;20198;-49
2023/08/17 02:40:15;;;;;;;3.00;1.70;;;;;;;;;;5010834;28;20284;-49
2023/08/17 02:42:41;;;;;;;2.87;1.70;;;;;;;;;;5010559;28;20879;-50
2023/08/17 02:45:07;;;;;;;5.17;2.23;;;;;;;;;;5011083;28;20196;-49
2023/08/17 02:47:33;;;;;;;3.80;2.00;;;;;;;;;;5014247;28;20197;-50
2023/08/17 02:50:00;;;;;;;1.63;1.43;;;;;;;;;;5013772;28;20197;-49
2023/08/17 02:52:26;;;;;;;3.43;2.17;;;;;;;;;;5013987;28;20248;-49
2023/08/17 02:54:53;;;;;;;3.70;1.70;;;;;;;;;;5013661;28;20767;-50
2023/08/17 02:57:19;;;;;;;2.43;1.80;;;;;;;;;;5014122;28;20207;-50
2023/08/17 02:59:45;;;;;;;2.63;1.70;;;;;;;;;;5012216;28;20220;-50
2023/08/17 03:02:11;;;;;;;4.60;1.80;;;;;;;;;;5013642;28;20831;-50
2023/08/17 03:04:37;;;;;;;3.43;1.90;;;;;;;;;;5013549;28;20232;-50
2023/08/17 03:07:04;;;;;;;4.20;1.83;;;;;;;;;;5013738;28;20205;-49
2023/08/17 03:09:31;;;;;;;2.80;2.00;;;;;;;;;;5013798;28;20208;-48
2023/08/17 03:11:57;;;;;;;4.33;1.83;;;;;;;;;;5013550;28;20284;-50
2023/08/17 03:14:23;;;;;;;4.43;1.90;;;;;;;;;;4995865;28;20327;-50
2023/08/17 03:16:48;;;;;;;5.30;2.07;;;;;;;;;;5013551;28;20201;-50
2023/08/17 03:19:15;;;;;;;4.70;2.10;;;;;;;;;;5013490;28;20200;-50
2023/08/17 03:21:41;;;;;;;3.57;1.73;;;;;;;;;;5013369;28;20409;-50
2023/08/17 03:24:08;;;;;;;3.40;2.00;;;;;;;;;;5013139;28;20236;-48
2023/08/17 03:26:34;;;;;;;4.93;2.27;;;;;;;;;;5013489;28;20224;-49
2023/08/17 03:29:00;;;;;;;3.63;2.10;;;;;;;;;;5013095;28;20244;-49
2023/08/17 03:31:26;;;;;;;4.13;1.97;;;;;;;;;;5013221;28;20678;-48
2023/08/17 03:33:52;;;;;;;5.10;2.40;;;;;;;;;;5012955;28;20224;-49
2023/08/17 03:36:18;;;;;;;4.83;2.47;;;;;;;;;;5013092;28;20660;-49
2023/08/17 03:38:44;;;;;;;3.63;2.37;;;;;;;;;;5013232;28;20255;-49
2023/08/17 03:41:11;;;;;;;4.27;1.97;;;;;;;;;;5012927;28;20242;-49
2023/08/17 03:43:37;;;;;;;3.50;2.23;;;;;;;;;;5012955;28;20208;-49
2023/08/17 03:46:04;;;;;;;3.50;2.20;;;;;;;;;;5012973;28;20197;-49
2023/08/17 03:48:30;;;;;;;4.17;2.10;;;;;;;;;;5012948;28;20725;-49
2023/08/17 03:50:56;;;;;;;4.87;2.33;;;;;;;;;;5012925;28;20204;-49
2023/08/17 03:53:22;;;;;;;3.23;2.27;;;;;;;;;;5012696;28;20206;-49
2023/08/17 03:55:48;;;;;;;3.00;1.87;;;;;;;;;;5012757;28;20229;-49
2023/08/17 03:58:16;;;;;;;4.37;2.10;;;;;;;;;;5011732;28;20721;-49
2023/08/17 04:00:42;;;;;;;4.50;2.23;;;;;;;;;;5012643;28;20208;-49
2023/08/17 04:03:08;;;;;;;3.43;2.00;;;;;;;;;;5012425;28;20262;-49
2023/08/17 04:05:34;;;;;;;2.70;2.10;;;;;;;;;;5012700;28;20192;-49
2023/08/17 04:08:04;;;;;;;6.47;2.17;;;;;;;;;;5012575;28;20266;-49
2023/08/17 04:10:30;;;;;;;3.20;2.10;;;;;;;;;;5012733;28;20199;-49
2023/08/17 04:12:56;;;;;;;4.23;1.90;;;;;;;;;;5010279;28;20293;-49
2023/08/17 04:15:23;;;;;;;3.53;2.27;;;;;;;;;;5012336;28;20232;-49
2023/08/17 04:17:51;;;;;;;5.57;2.20;;;;;;;;;;5014519;28;20206;-49
2023/08/17 04:20:21;;;;;;;5.33;2.13;;;;;;;;;;5012422;28;20201;-49
2023/08/17 04:22:47;;;;;;;2.47;2.00;;;;;;;;;;5012647;28;20205;-49
2023/08/17 04:25:13;;;;;;;4.60;2.00;;;;;;;;;;5012105;28;20199;-49
2023/08/17 04:27:39;;;;;;;5.20;2.67;;;;;;;;;;5012090;28;20659;-50
2023/08/17 04:30:06;;;;;;;3.80;2.20;;;;;;;;;;5003904;28;20248;-49
2023/08/17 04:32:33;;;;;;;2.90;1.70;;;;;;;;;;5012365;28;20215;-49
2023/08/17 04:35:01;;;;;;;5.13;2.43;;;;;;;;;;5012042;28;20230;-49
2023/08/17 04:37:27;;;;;;;6.33;2.17;;;;;;;;;;5012027;28;20263;-48
2023/08/17 04:39:53;;;;;;;4.63;2.10;;;;;;;;;;5011740;28;20209;-49
2023/08/17 04:42:22;;;;;;;3.47;1.97;;;;;;;;;;5011731;28;20231;-49
2023/08/17 04:44:48;;;;;;;3.47;2.00;;;;;;;;;;5011711;28;20209;-48
2023/08/17 04:47:14;;;;;;;3.73;2.17;;;;;;;;;;5011655;28;20686;-49
2023/08/17 04:49:41;;;;;;;4.00;1.97;;;;;;;;;;5011803;28;20204;-49
2023/08/17 04:52:07;;;;;;;5.33;2.30;;;;;;;;;;5011522;28;20192;-48
2023/08/17 04:54:33;;;;;;;2.73;2.07;;;;;;;;;;5011599;28;20219;-49
2023/08/17 04:57:04;;;;;;;4.83;2.20;;;;;;;;;;5011559;28;20209;-48
2023/08/17 04:59:30;;;;;;;3.40;2.30;;;;;;;;;;5011820;28;20272;-49
2023/08/17 05:01:56;;;;;;;5.00;2.17;;;;;;;;;;5011619;28;20857;-49
2023/08/17 05:04:22;;;;;;;2.10;1.80;;;;;;;;;;5011169;28;20239;-49
2023/08/17 05:06:49;;;;;;;5.33;3.17;;;;;;;;;;5011574;28;20204;-49
2023/08/17 05:09:15;;;;;;;4.83;2.27;;;;;;;;;;5011077;28;20241;-49
2023/08/17 05:11:42;;;;;;;2.00;1.80;;;;;;;;;;5011355;28;20225;-49
2023/08/17 05:14:08;;;;;;;3.43;2.20;;;;;;;;;;5011095;28;20686;-49
2023/08/17 05:16:34;;;;;;;4.00;2.17;;;;;;;;;;5011436;28;20284;-49
2023/08/17 05:19:00;;;;;;;4.77;2.83;;;;;;;;;;5011287;28;20284;-49
2023/08/17 05:21:27;;;;;;;3.77;2.10;;;;;;;;;;5011008;28;20232;-49
2023/08/17 05:23:54;;;;;;;4.47;2.33;;;;;;;;;;5011410;28;20197;-49
2023/08/17 05:26:20;;;;;;;3.57;2.40;;;;;;;;;;5011151;28;20710;-49
2023/08/17 05:28:46;;;;;;;3.10;2.00;;;;;;;;;;5011320;28;20282;-49
2023/08/17 05:31:12;;;;;;;6.00;2.30;;;;;;;;;;5011006;28;20208;-50
2023/08/17 05:33:40;;;;;;;3.63;2.20;;;;;;;;;;5011123;28;20204;-49
2023/08/17 05:36:06;;;;;;;4.07;2.23;;;;;;;;;;5010873;28;20283;-50
2023/08/17 05:38:33;;;;;;;3.83;2.30;;;;;;;;;;5011302;28;20204;-49
2023/08/17 05:41:01;;;;;;;4.60;2.30;;;;;;;;;;5010905;28;20228;-50
2023/08/17 05:43:27;;;;;;;5.43;2.43;;;;;;;;;;5010987;28;20291;-50
2023/08/17 05:45:53;;;;;;;5.03;2.13;;;;;;;;;;5010984;28;20189;-49
2023/08/17 05:48:20;;;;;;;2.80;2.33;;;;;;;;;;5011056;28;20202;-49
2023/08/17 05:50:46;;;;;;;5.37;2.60;;;;;;;;;;5011099;28;20212;-49
2023/08/17 05:53:12;;;;;;;3.23;2.20;;;;;;;;;;5010657;28;20225;-49
2023/08/17 05:55:38;;;;;;;3.77;2.20;;;;;;;;;;5010821;28;20674;-50
2023/08/17 05:58:06;;;;;;;3.73;2.30;;;;;;;;;;5010834;28;20663;-49
2023/08/17 06:00:32;;;;;;;3.00;2.10;;;;;;;;;;5011224;28;20208;-49
2023/08/17 06:03:01;;;;;;;3.33;2.30;;;;;;;;;;5010853;28;20200;-49
2023/08/17 06:05:28;;;;;;;3.33;2.20;;;;;;;;;;5010778;28;20670;-49
2023/08/17 06:07:54;;;;;;;4.37;2.20;;;;;;;;;;5010776;28;20809;-49
2023/08/17 06:10:20;;;;;;;3.10;2.30;;;;;;;;;;5010865;28;20201;-49
2023/08/17 06:12:46;;;;;;;3.30;2.33;;;;;;;;;;5010946;28;20220;-49
2023/08/17 06:15:14;;;;;;;3.50;2.07;;;;;;;;;;5010689;28;20254;-50
2023/08/17 06:17:42;;;;;;;3.90;2.40;;;;;;;;;;5010644;28;20787;-50
2023/08/17 06:20:10;;;;;;;3.53;2.57;;;;;;;;;;5002507;28;20201;-49
2023/08/17 06:22:36;;;;;;;4.63;2.47;;;;;;;;;;5014564;28;20201;-49
2023/08/17 06:25:03;;;;;;;3.40;2.50;;;;;;;;;;5014362;28;20585;-49
2023/08/17 06:27:29;;;;;;;5.00;2.40;;;;;;;;;;5014320;28;20229;-49
2023/08/17 06:29:56;;;;;;;4.80;2.47;;;;;;;;;;5014229;28;20350;-49
2023/08/17 06:32:23;;;;;;;5.17;2.80;;;;;;;;;;5014201;28;20205;-49
2023/08/17 06:34:49;;;;;;;4.97;2.40;;;;;;;;;;5014379;28;20225;-49
2023/08/17 06:37:15;;;;;;;5.17;2.60;;;;;;;;;;5014313;28;20213;-50
2023/08/17 06:39:41;;;;;;;6.43;2.67;;;;;;;;;;5014288;28;20642;-50
2023/08/17 06:42:07;;;;;;;3.63;2.30;;;;;;;;;;5013930;28;20563;-49
2023/08/17 06:44:33;;;;;;;4.20;2.60;;;;;;;;;;5014239;28;20697;-48
2023/08/17 06:46:59;;;;;;;4.00;2.60;;;;;;;;;;5014208;28;20196;-49
2023/08/17 06:49:27;;;;;;;4.67;2.40;;;;;;;;;;5013755;28;20204;-49
2023/08/17 06:51:53;;;;;;;3.27;2.10;;;;;;;;;;5013979;28;20286;-49
2023/08/17 06:54:19;;;;;;;3.70;2.50;;;;;;;;;;5013860;28;20313;-50
2023/08/17 06:56:45;;;;;;;3.17;2.23;;;;;;;;;;5014020;28;20280;-50
2023/08/17 06:59:12;;;;;;;2.87;2.47;;;;;;;;;;5013710;28;20287;-49
2023/08/17 07:01:38;;;;;;;5.37;2.43;;;;;;;;;;5013891;28;20201;-50
2023/08/17 07:04:04;;;;;;;3.47;2.60;;;;;;;;;;5013792;28;20208;-50
2023/08/17 07:06:31;;;;;;;2.40;2.10;;;;;;;;;;5013861;28;20193;-50
2023/08/17 07:08:57;;;;;;;4.07;2.50;;;;;;;;;;5013502;28;20626;-49
2023/08/17 07:11:23;;;;;;;4.77;2.63;;;;;;;;;;5013553;28;20224;-49
2023/08/17 07:13:50;;;;;;;2.97;2.30;;;;;;;;;;5013789;28;20227;-50
2023/08/17 07:16:16;;;;;;;3.43;2.30;;;;;;;;;;5013491;28;20231;-49
2023/08/17 07:18:42;;;;;;;4.30;2.57;;;;;;;;;;5013367;28;20212;-49
2023/08/17 07:21:08;;;;;;;2.57;2.17;;;;;;;;;;5013281;28;20251;-50
2023/08/17 07:23:35;;;;;;;3.17;2.20;;;;;;;;;;5013486;28;20197;-49
2023/08/17 07:26:01;;;;;;;3.67;2.50;;;;;;;;;;5013442;28;20201;-50
2023/08/17 07:28:27;;;;;;;2.63;2.13;;;;;;;;;;5013037;28;20267;-50
2023/08/17 07:30:53;;;;;;;4.13;2.90;;;;;;;;;;5012875;28;20538;-50
2023/08/17 07:33:19;;;;;;;3.77;2.30;;;;;;;;;;5013241;28;20228;-50
2023/08/17 07:35:45;;;;;;;3.27;2.57;;;;;;;;;;5013387;28;20232;-49
2023/08/17 07:38:11;;;;;;;3.93;2.47;;;;;;;;;;5013101;28;20235;-53
2023/08/17 07:40:38;;;;;;;4.67;2.63;;;;;;;;;;5013003;28;20559;-52
2023/08/17 07:43:04;;;;;;;2.53;2.33;;;;;;;;;;5012766;28;20300;-52
2023/08/17 07:45:30;;;;;;;3.30;2.50;;;;;;;;;;5012906;28;20215;-51
2023/08/17 07:47:57;;;;;;;2.97;2.13;;;;;;;;;;5012834;28;20201;-52
2023/08/17 07:50:23;;;;;;;3.93;2.53;;;;;;;;;;5012691;28;20224;-50
2023/08/17 07:52:49;;;;;;;3.00;2.33;;;;;;;;;;5012653;28;20713;-46
2023/08/17 07:55:15;;;;;;;2.63;2.33;;;;;;;;;;5012426;28;20256;-50
2023/08/17 07:57:43;;;;;;;2.80;2.17;;;;;;;;;;5012761;28;20418;-53
2023/08/17 08:00:09;;;;;;;3.30;2.20;;;;;;;;;;5012513;28;20284;-52
2023/08/17 08:02:35;;;;;;;5.13;2.53;;;;;;;;;;5010673;28;20201;-52
2023/08/17 08:05:01;;;;;;;4.53;2.47;;;;;;;;;;5012828;28;20620;-54
2023/08/17 08:07:27;;;;;;;3.97;2.43;;;;;;;;;;5012364;28;20239;-52
2023/08/17 08:09:53;;;;;;;5.00;2.27;;;;;;;;;;5012602;28;20288;-53
2023/08/17 08:12:19;;;;;;;4.30;2.20;;;;;;;;;;5012407;28;20285;-58
2023/08/17 08:14:48;;;;;;;2.33;2.00;;;;;;;;;;5012608;28;20663;-53
2023/08/17 08:17:14;;;;;;;2.97;2.10;;;;;;;;;;5012404;28;20255;-52
2023/08/17 08:19:40;;;;;;;2.93;2.27;;;;;;;;;;5012244;28;20201;-52
2023/08/17 08:22:06;;;;;;;2.90;2.20;;;;;;;;;;5012462;28;20246;-52
2023/08/17 08:24:34;;;;;;;3.50;2.10;;;;;;;;;;5012329;28;20251;-52
2023/08/17 08:27:01;;;;;;;2.47;2.00;;;;;;;;;;5012531;28;20584;-52
2023/08/17 08:29:27;;;;;;;3.30;2.10;;;;;;;;;;5011904;28;20298;-53
2023/08/17 08:31:54;;;;;;;2.50;1.90;;;;;;;;;;5012008;28;20660;-53
2023/08/17 08:34:20;;;;;;;2.17;1.60;;;;;;;;;;5011800;28;20250;-53
2023/08/17 08:36:48;;;;;;;2.53;2.10;;;;;;;;;;5012419;28;20203;-53
2023/08/17 08:39:14;;;;;;;2.23;2.03;;;;;;;;;;5011910;28;20668;-53
2023/08/17 08:41:40;;;;;;;5.37;2.17;;;;;;;;;;5012007;28;20391;-53
2023/08/17 08:44:06;;;;;;;3.10;2.23;;;;;;;;;;5011322;28;20409;-53
2023/08/17 08:46:34;;;;;;;3.17;2.37;;;;;;;;;;5010313;28;20741;-52
2023/08/17 08:49:03;;;;;;;3.93;1.93;;;;;;;;;;5010111;28;20200;-53
2023/08/17 08:51:30;;;;;;;2.73;2.00;;;;;;;;;;5010259;28;21051;-54
2023/08/17 08:54:02;;;;;;;2.73;1.80;;;;;;;;;;5031236;28;20246;-51
2023/08/17 08:56:28;;;;;;;3.20;1.93;;;;;;;;;;5022614;28;20228;-51
2023/08/17 08:58:54;;;;;;;3.33;2.00;;;;;;;;;;5007832;28;20225;-52
2023/08/17 09:01:21;;;;;;;2.20;1.80;;;;;;;;;;5009314;28;20226;-52
2023/08/17 09:03:48;;;;;;;3.43;2.00;;;;;;;;;;5009405;28;20291;-52
2023/08/17 09:06:15;;;;;;;2.20;1.70;;;;;;;;;;5009192;28;20187;-50
2023/08/17 09:08:42;;;;;;;2.23;2.03;;;;;;;;;;5011015;28;20262;-51
2023/08/17 09:11:08;;;;;;;2.40;1.73;;;;;;;;;;5010671;28;20205;-52
2023/08/17 09:13:34;;;;;;;2.73;1.60;;;;;;;;;;5010772;28;20730;-52
2023/08/17 09:16:01;;;;;;;3.23;2.07;;;;;;;;;;5010996;28;20229;-53
2023/08/17 09:18:27;;;;;;;2.70;1.50;;;;;;;;;;5010773;28;20213;-53
2023/08/17 09:20:53;;;;;;;3.53;1.67;;;;;;;;;;5010798;28;20205;-53
2023/08/17 09:23:22;;;;;;;9.53;4.37;;;;;;;;;;5009274;28;20196;-54
2023/08/17 09:25:51;;;;;;;4.23;3.83;;;;;;;;;;5010788;28;20576;-53
2023/08/17 09:28:18;;;;;;;2.90;1.90;;;;;;;;;;5010605;28;20260;-51
2023/08/17 09:30:51;;;;;;;3.43;1.50;;;;;;;;;;5010893;28;20739;-51
2023/08/17 09:33:17;;;;;;;1.60;1.50;;;;;;;;;;5010858;28;20193;-52
2023/08/17 09:35:43;;;;;;;1.17;1.07;;;;;;;;;;5010747;28;20682;-52
2023/08/17 09:38:09;;;;;;;1.30;1.20;;;;;;;;;;5010485;28;20307;-52
2023/08/17 09:40:36;;;;;;;1.33;1.23;;;;;;;;;;5010714;28;20260;-52
2023/08/17 09:43:02;;;;;;;1.30;1.20;;;;;;;;;;5010748;28;20209;-52
2023/08/17 09:45:30;;;;;;;1.27;1.13;;;;;;;;;;5006799;28;20678;-53
2023/08/17 09:47:58;;;;;;;1.40;1.30;;;;;;;;;;5013740;28;20207;-51
2023/08/17 09:50:25;;;;;;;1.40;1.30;;;;;;;;;;5028566;28;20272;-51
2023/08/17 09:52:53;;;;;;;1.37;1.20;;;;;;;;;;5030139;28;20263;-51
2023/08/17 09:55:20;;;;;;;2.23;1.40;;;;;;;;;;5033171;28;20695;-52
2023/08/17 09:57:49;;;;;;;1.30;1.20;;;;;;;;;;5034600;28;20251;-51
2023/08/17 10:00:15;;;;;;;2.33;1.60;;;;;;;;;;5034374;28;20207;-53
2023/08/17 10:02:42;;;;;;;4.87;4.47;;;;;;;;;;5034118;28;20307;-51
2023/08/17 10:05:11;;;;;;;2.37;2.10;;;;;;;;;;5034240;28;20235;-51
2023/08/17 10:07:39;;;;;;;1.60;1.50;;;;;;;;;;5033909;28;20291;-51
2023/08/17 10:10:06;;;;;;;1.67;1.57;;;;;;;;;;5034351;28;20261;-51
2023/08/17 10:12:36;;;;;;;2.27;1.70;;;;;;;;;;5034408;28;20196;-52
2023/08/17 10:15:06;;;;;;;1.83;1.73;;;;;;;;;;5034193;28;20227;-53
2023/08/17 10:17:36;;;;;;;1.80;1.70;;;;;;;;;;5033975;28;20211;-52
2023/08/17 10:20:03;;;;;;;2.13;1.70;;;;;;;;;;5030504;28;20737;-51
2023/08/17 10:22:33;;;;;;;2.03;1.70;;;;;;;;;;5034116;28;20199;-52
2023/08/17 10:25:00;;;;;;;1.43;1.33;;;;;;;;;;5034201;28;20434;-51
2023/08/17 10:27:27;;;;;;;1.70;1.57;;;;;;;;;;5033813;28;20217;-52
2023/08/17 10:29:53;;;;;;;4.27;1.60;;;;;;;;;;5032036;28;20652;-52
2023/08/17 10:32:22;;;;;;;2.03;1.70;;;;;;;;;;5033855;28;20239;-52
2023/08/17 10:34:48;;;;;;;2.00;1.50;;;;;;;;;;5033697;28;20222;-52
2023/08/17 10:37:14;;;;;;;6.30;4.47;;;;;;;;;;5033981;28;20254;-53
2023/08/17 10:39:45;;;;;;;1.60;1.50;;;;;;;;;;5033612;28;20199;-53
2023/08/17 10:42:11;;;;;;;1.80;1.70;;;;;;;;;;5033684;28;20193;-53
2023/08/17 10:44:41;;;;;;;1.77;1.50;;;;;;;;;;5033619;28;20223;-53
2023/08/17 10:47:21;;;;;;;2.40;1.47;;;;;;;;;;5031631;28;20258;-53
2023/08/17 10:49:48;;;;;;;1.40;1.30;;;;;;;;;;5033299;28;20294;-53
2023/08/17 10:52:15;;;;;;;1.60;1.40;;;;;;;;;;5033328;28;20609;-53
2023/08/17 10:54:42;;;;;;;1.60;1.50;;;;;;;;;;5032821;28;20279;-53
2023/08/17 10:57:26;;;;;;;1.43;1.33;;;;;;;;;;5033312;28;20254;-53
2023/08/17 11:00:11;;;;;;;2.13;1.60;;;;;;;;;;5033362;28;20181;-53
2023/08/17 11:02:38;;;;;;;2.17;1.40;;;;;;;;;;5032881;28;20197;-53
2023/08/17 11:05:05;;;;;;;2.10;1.50;;;;;;;;;;5033288;28;20220;-53
2023/08/17 11:07:39;;;;;;;1.47;1.37;;;;;;;;;;5032739;28;20563;-52
2023/08/17 11:10:11;;;;;;;1.47;1.37;;;;;;;;;;5033461;28;20196;-53
2023/08/17 11:12:37;;;;;;;2.27;1.53;;;;;;;;;;5030713;28;20204;-52
2023/08/17 11:15:03;;;;;;;1.40;1.30;;;;;;;;;;5033121;28;20271;-53
2023/08/17 11:17:29;;;;;;;1.73;1.27;;;;;;;;;;5032764;28;20254;-55
2023/08/17 11:19:56;;;;;;;2.63;1.50;;;;;;;;;;5033038;28;20239;-53
2023/08/17 11:22:23;;;;;;;1.13;1.10;;;;;;;;;;5032796;28;20210;-53
2023/08/17 11:24:49;;;;;;;1.40;1.23;;;;;;;;;;5033047;28;20196;-52
2023/08/17 11:27:15;;;;;;;1.83;1.43;;;;;;;;;;5032757;28;20714;-52
2023/08/17 11:29:41;;;;;;;2.33;1.50;;;;;;;;;;5032221;28;20247;-53
2023/08/17 11:32:09;;;;;;;1.43;1.33;;;;;;;;;;5032764;28;20196;-53
2023/08/17 11:34:36;;;;;;;1.63;1.53;;;;;;;;;;5032509;28;20204;-53
2023/08/17 11:37:04;;;;;;;1.40;1.30;;;;;;;;;;5033112;28;20207;-53
2023/08/17 11:39:33;;;;;;;2.63;2.40;;;;;;;;;;5032416;28;20222;-53
2023/08/17 11:41:59;;;;;;;2.20;2.00;;;;;;;;;;5032779;28;20216;-53
2023/08/17 11:44:25;;;;;;;1.73;1.47;;;;;;;;;;5032642;28;20196;-51
2023/08/17 11:46:51;;;;;;;1.93;1.50;;;;;;;;;;5032657;28;20203;-52
2023/08/17 11:49:17;;;;;;;2.13;1.90;;;;;;;;;;5032675;28;20286;-52
2023/08/17 11:51:43;;;;;;;1.87;1.53;;;;;;;;;;5032309;28;20204;-53
2023/08/17 11:54:11;;;;;;;2.67;1.37;;;;;;;;;;5032585;28;20197;-52
2023/08/17 11:56:37;;;;;;;1.17;1.10;;;;;;;;;;5032275;28;20231;-52
2023/08/17 11:59:11;;;;;;;1.40;1.30;;;;;;;;;;5032702;28;20212;-52
2023/08/17 12:01:37;;;;;;;1.40;1.30;;;;;;;;;;5032200;28;20215;-53
2023/08/17 12:04:05;;;;;;;1.83;1.47;;;;;;;;;;5032467;28;20211;-53
2023/08/17 12:06:31;;;;;;;3.20;1.50;;;;;;;;;;5031851;28;20206;-52
2023/08/17 12:08:57;;;;;;;1.50;1.40;;;;;;;;;;5032383;28;20278;-52
2023/08/17 12:11:25;;;;;;;1.50;1.40;;;;;;;;;;5032256;28;20207;-52
2023/08/17 12:13:52;;;;;;;1.50;1.40;;;;;;;;;;5030186;28;20207;-53
2023/08/17 12:16:18;;;;;;;1.97;1.67;;;;;;;;;;5031527;28;20247;-52
2023/08/17 12:18:44;;;;;;;2.00;1.30;;;;;;;;;;5030773;28;20200;-52
2023/08/17 12:21:10;;;;;;;2.07;1.60;;;;;;;;;;5031982;28;20188;-52
2023/08/17 12:23:36;;;;;;;1.70;1.60;;;;;;;;;;5031633;28;20977;-52
2023/08/17 12:26:02;;;;;;;1.80;1.60;;;;;;;;;;5032180;28;20196;-52
2023/08/17 12:28:30;;;;;;;1.63;1.53;;;;;;;;;;5031358;28;20247;-52
2023/08/17 12:30:59;;;;;;;2.00;1.60;;;;;;;;;;5031947;28;20675;-52
2023/08/17 12:33:26;;;;;;;1.80;1.70;;;;;;;;;;5031454;28;20201;-52
2023/08/17 12:35:52;;;;;;;7.63;6.83;;;;;;;;;;5031494;28;20266;-52
2023/08/17 12:38:18;;;;;;;3.90;3.50;;;;;;;;;;5031812;28;20239;-53
2023/08/17 12:40:44;;;;;;;3.27;1.77;;;;;;;;;;5031456;28;20196;-52
2023/08/17 12:43:10;;;;;;;1.80;1.40;;;;;;;;;;5031574;28;20196;-52
2023/08/17 12:45:37;;;;;;;2.87;1.73;;;;;;;;;;5031403;28;20216;-52
2023/08/17 12:48:03;;;;;;;1.67;1.57;;;;;;;;;;5031210;28;20294;-52
2023/08/17 12:50:29;;;;;;;1.83;1.70;;;;;;;;;;5031274;28;20203;-52
2023/08/17 12:52:55;;;;;;;1.70;1.60;;;;;;;;;;5031167;28;20628;-52
2023/08/17 12:55:21;;;;;;;2.03;1.70;;;;;;;;;;5031351;28;20220;-52
2023/08/17 12:57:47;;;;;;;4.00;1.87;;;;;;;;;;5031298;28;20208;-52
2023/08/17 13:00:14;;;;;;;1.73;1.63;;;;;;;;;;5019464;28;20577;-53
2023/08/17 13:02:42;;;;;;;3.40;1.87;;;;;;;;;;5011901;28;20228;-53
2023/08/17 13:05:08;;;;;;;2.00;1.47;;;;;;;;;;5011133;28;20197;-52
2023/08/17 13:07:34;;;;;;;2.27;1.70;;;;;;;;;;5009923;28;20791;-52
2023/08/17 13:10:00;;;;;;;3.13;1.77;;;;;;;;;;5010665;28;20566;-52
2023/08/17 13:12:26;;;;;;;1.90;1.70;;;;;;;;;;5010541;28;20204;-51
2023/08/17 13:14:52;;;;;;;2.80;1.70;;;;;;;;;;5011051;28;20193;-52
2023/08/17 13:17:18;;;;;;;3.47;1.80;;;;;;;;;;5011131;28;20228;-50
2023/08/17 13:19:46;;;;;;;8.20;7.50;;;;;;;;;;5005855;28;20713;-51
2023/08/17 13:22:12;;;;;;;2.20;1.73;;;;;;;;;;5030262;28;20263;-50
2023/08/17 13:24:38;;;;;;;1.47;1.37;;;;;;;;;;5017110;28;20236;-50
2023/08/17 13:27:04;;;;;;;1.43;1.33;;;;;;;;;;5011038;28;20235;-50
2023/08/17 13:29:30;;;;;;;1.40;1.30;;;;;;;;;;5010212;28;20244;-51
2023/08/17 13:31:56;;;;;;;1.80;1.60;;;;;;;;;;5010891;28;20212;-52
2023/08/17 13:34:22;;;;;;;2.03;1.30;;;;;;;;;;5010872;28;20557;-51
2023/08/17 13:36:49;;;;;;;1.37;1.20;;;;;;;;;;5010915;28;20233;-52
2023/08/17 13:39:15;;;;;;;2.07;1.73;;;;;;;;;;5010924;28;20236;-52
2023/08/17 13:41:42;;;;;;;1.50;1.23;;;;;;;;;;5010093;28;20213;-52
2023/08/17 13:44:08;;;;;;;1.77;1.50;;;;;;;;;;5011134;28;20212;-52
2023/08/17 13:46:34;;;;;;;2.50;1.23;;;;;;;;;;5010768;28;20297;-52
2023/08/17 13:49:00;;;;;;;1.47;1.37;;;;;;;;;;5010721;28;20284;-52
2023/08/17 13:51:26;;;;;;;1.40;1.23;;;;;;;;;;5010712;28;20631;-52
2023/08/17 13:53:54;;;;;;;1.70;1.60;;;;;;;;;;5010037;28;20308;-52
2023/08/17 13:56:20;;;;;;;1.30;1.20;;;;;;;;;;5010327;28;20320;-52
2023/08/17 13:58:46;;;;;;;1.67;1.50;;;;;;;;;;5010457;28;20197;-52
2023/08/17 14:01:12;;;;;;;2.90;2.70;;;;;;;;;;5010837;28;20205;-52
2023/08/17 14:03:38;;;;;;;1.77;1.50;;;;;;;;;;5010039;28;20204;-52
2023/08/17 14:06:04;;;;;;;1.30;1.20;;;;;;;;;;5009722;28;20197;-52
2023/08/17 14:08:30;;;;;;;1.23;1.13;;;;;;;;;;5010325;28;20686;-52
2023/08/17 14:10:57;;;;;;;2.00;1.17;;;;;;;;;;5010146;28;20378;-52
2023/08/17 14:13:23;;;;;;;1.50;1.40;;;;;;;;;;5010507;28;20195;-52
2023/08/17 14:15:49;;;;;;;1.53;1.43;;;;;;;;;;5010625;28;20222;-53
2023/08/17 14:18:15;;;;;;;2.33;1.40;;;;;;;;;;5010499;28;20192;-52
2023/08/17 14:20:41;;;;;;;1.30;1.13;;;;;;;;;;5010737;28;20205;-53
2023/08/17 14:23:07;;;;;;;1.90;1.30;;;;;;;;;;5010591;28;20208;-53
2023/08/17 14:25:33;;;;;;;1.30;1.20;;;;;;;;;;5009153;28;20204;-53
2023/08/17 14:28:04;;;;;;;2.13;1.40;;;;;;;;;;5009011;28;20205;-53
2023/08/17 14:30:30;;;;;;;2.13;1.37;;;;;;;;;;5007301;28;20260;-52
2023/08/17 14:32:56;;;;;;;1.13;1.10;;;;;;;;;;5010232;28;20449;-51
2023/08/17 14:35:22;;;;;;;20.17;18.37;;;;;;;;;;5010357;28;20225;-51
2023/08/17 14:37:48;;;;;;;4.70;2.00;;;;;;;;;;5010379;28;20204;-51
2023/08/17 14:40:14;;;;;;;1.50;1.40;;;;;;;;;;5010471;28;20295;-51